createdAt,value
2022-09-03T00:03:02.573Z,97378.65
2022-09-03T00:06:02.764Z,97381.27
2022-09-03T00:08:41.486Z,97382.84
2022-09-03T00:11:22.327Z,97377.20
2022-09-03T00:14:12.453Z,97376.95
2022-09-03T00:16:57.165Z,97378.11
2022-09-03T00:19:35.708Z,97378.94
2022-09-03T00:22:13.576Z,97379.41
2022-09-03T00:24:44.422Z,97376.85
2022-09-03T00:27:19.253Z,97380.10
2022-09-03T00:29:52.784Z,97378.96
2022-09-03T00:32:48.101Z,97382.65
2022-09-03T00:35:43.807Z,97386.30
2022-09-03T00:38:12.897Z,97378.02
2022-09-03T00:41:17.633Z,97379.15
2022-09-03T00:44:15.423Z,97377.63
2022-09-03T00:46:53.408Z,97378.19
2022-09-03T00:49:37.648Z,97379.98
2022-09-03T00:52:46.080Z,97377.77
2022-09-03T00:55:42.508Z,97375.20
2022-09-03T00:58:22.851Z,97376.45
2022-09-03T01:00:53.375Z,97378.08
2022-09-03T01:03:42.923Z,97385.21
2022-09-03T01:06:40.566Z,97385.51
2022-09-03T01:09:12.812Z,97383.48
2022-09-03T01:12:02.433Z,97382.52
2022-09-03T01:14:49.927Z,97384.20
2022-09-03T01:17:40.647Z,97387.52
2022-09-03T01:20:31.031Z,97386.49
2022-09-03T01:23:36.663Z,97379.02
2022-09-03T01:26:34.115Z,97386.23
2022-09-03T01:29:26.370Z,97383.27
2022-09-03T01:32:13.083Z,97384.66
2022-09-03T01:35:04.586Z,97379.69
2022-09-03T01:38:03.269Z,97380.67
2022-09-03T01:41:23.047Z,97380.52
2022-09-03T01:44:17.364Z,97386.05
2022-09-03T01:46:50.622Z,97386.56
2022-09-03T01:49:36.950Z,97390.65
2022-09-03T01:52:20.009Z,97386.94
2022-09-03T01:55:02.275Z,97389.72
2022-09-03T01:57:46.962Z,97392.81
2022-09-03T02:00:20.685Z,97393.90
2022-09-03T02:02:51.950Z,97394.17
2022-09-03T02:05:27.450Z,97393.41
2022-09-03T02:08:11.793Z,97390.09
2022-09-03T02:10:54.605Z,97389.20
2022-09-03T02:13:29.833Z,97390.17
2022-09-03T02:16:07.048Z,97386.67
2022-09-03T02:18:49.276Z,97387.05
2022-09-03T02:21:25.886Z,97388.83
2022-09-03T02:23:56.449Z,97390.23
2022-09-03T02:26:27.582Z,97396.06
2022-09-03T02:28:59.055Z,97395.17
2022-09-03T02:31:30.578Z,97394.91
2022-09-03T02:34:02.273Z,97398.64
2022-09-03T02:36:37.159Z,97396.15
2022-09-03T02:39:08.993Z,97398.73
2022-09-03T02:41:42.420Z,97399.42
2022-09-03T02:44:32.900Z,97395.05
2022-09-03T02:47:05.889Z,97392.95
2022-09-03T02:49:35.890Z,97396.10
2022-09-03T02:52:13.371Z,97403.96
2022-09-03T02:54:45.882Z,97399.55
2022-09-03T02:57:20.092Z,97400.70
2022-09-03T02:59:57.590Z,97401.23
2022-09-03T03:02:28.101Z,97399.35
2022-09-03T03:04:58.018Z,97400.33
2022-09-03T03:07:32.614Z,97399.87
2022-09-03T03:10:02.321Z,97399.48
2022-09-03T03:12:32.356Z,97399.51
2022-09-03T03:15:02.305Z,97403.61
2022-09-03T03:17:32.246Z,97413.15
2022-09-03T03:20:05.519Z,97416.16
2022-09-03T03:22:36.273Z,97413.80
2022-09-03T03:25:06.449Z,97413.17
2022-09-03T03:27:36.797Z,97411.89
2022-09-03T03:30:10.295Z,97412.11
2022-09-03T03:32:40.412Z,97408.41
2022-09-03T03:35:09.932Z,97408.69
2022-09-03T03:37:40.227Z,97408.68
2022-09-03T03:40:10.905Z,97406.34
2022-09-03T03:42:40.414Z,97403.66
2022-09-03T03:45:10.837Z,97408.49
2022-09-03T03:47:40.058Z,97402.50
2022-09-03T03:50:09.479Z,97409.25
2022-09-03T03:52:38.760Z,97410.56
2022-09-03T03:55:08.389Z,97411.19
2022-09-03T03:57:37.679Z,97407.44
2022-09-03T04:00:07.600Z,97412.23
2022-09-03T04:02:43.924Z,97413.08
2022-09-03T04:05:13.157Z,97412.65
2022-09-03T04:07:44.832Z,97408.84
2022-09-03T04:10:16.028Z,97405.91
2022-09-03T04:12:45.148Z,97409.63
2022-09-03T04:15:14.649Z,97408.80
2022-09-03T04:17:44.670Z,97409.97
2022-09-03T04:20:14.379Z,97411.64
2022-09-03T04:22:43.594Z,97412.44
2022-09-03T04:25:13.295Z,97415.59
2022-09-03T04:27:42.708Z,97412.13
2022-09-03T04:30:12.499Z,97418.81
2022-09-03T04:32:54.006Z,97418.21
2022-09-03T04:35:34.407Z,97411.83
2022-09-03T04:38:07.542Z,97413.84
2022-09-03T04:40:38.713Z,97412.11
2022-09-03T04:43:07.766Z,97417.13
2022-09-03T04:45:37.258Z,97418.83
2022-09-03T04:48:10.665Z,97420.78
2022-09-03T04:50:39.899Z,97416.51
2022-09-03T04:53:08.723Z,97418.73
2022-09-03T04:55:39.525Z,97421.98
2022-09-03T04:58:08.879Z,97422.54
2022-09-03T05:00:38.502Z,97422.27
2022-09-03T05:03:07.574Z,97424.98
2022-09-03T05:05:36.382Z,97422.31
2022-09-03T05:08:06.201Z,97419.18
2022-09-03T05:10:35.407Z,97418.33
2022-09-03T05:13:06.481Z,97421.17
2022-09-03T05:15:35.852Z,97420.39
2022-09-03T05:18:04.568Z,97424.41
2022-09-03T05:20:33.529Z,97427.90
2022-09-03T05:23:06.512Z,97425.67
2022-09-03T05:25:35.216Z,97426.06
2022-09-03T05:28:04.387Z,97425.13
2022-09-03T05:30:33.179Z,97427.86
2022-09-03T05:33:04.530Z,97429.03
2022-09-03T05:35:34.655Z,97434.32
2022-09-03T05:38:04.048Z,97435.67
2022-09-03T05:40:34.260Z,97437.88
2022-09-03T05:43:07.874Z,97438.42
2022-09-03T05:45:37.559Z,97440.58
2022-09-03T05:48:06.533Z,97443.73
2022-09-03T05:50:35.572Z,97440.77
2022-09-03T05:53:04.763Z,97446.48
2022-09-03T05:55:34.470Z,97444.92
2022-09-03T05:58:03.471Z,97446.85
2022-09-03T06:00:32.352Z,97446.83
2022-09-03T06:03:01.866Z,97449.58
2022-09-03T06:05:31.054Z,97448.81
2022-09-03T06:08:00.359Z,97452.38
2022-09-03T06:10:38.722Z,97453.92
2022-09-03T06:13:11.040Z,97454.25
2022-09-03T06:15:40.075Z,97456.91
2022-09-03T06:18:08.823Z,97458.88
2022-09-03T06:20:38.015Z,97458.77
2022-09-03T06:23:07.213Z,97457.96
2022-09-03T06:25:36.514Z,97461.54
2022-09-03T06:28:09.089Z,97459.88
2022-09-03T06:30:37.741Z,97462.55
2022-09-03T06:33:06.464Z,97459.73
2022-09-03T06:35:42.720Z,97461.42
2022-09-03T06:38:13.153Z,97460.98
2022-09-03T06:40:41.739Z,97462.17
2022-09-03T06:43:11.679Z,97464.04
2022-09-03T06:45:40.360Z,97462.75
2022-09-03T06:48:09.543Z,97464.64
2022-09-03T06:50:38.186Z,97467.88
2022-09-03T06:53:07.016Z,97470.70
2022-09-03T06:55:40.249Z,97471.25
2022-09-03T06:58:08.997Z,97474.30
2022-09-03T07:00:37.987Z,97476.00
2022-09-03T07:03:07.380Z,97476.95
2022-09-03T07:05:36.066Z,97479.98
2022-09-03T07:08:04.757Z,97486.50
2022-09-03T07:10:37.702Z,97483.91
2022-09-03T07:13:09.304Z,97488.55
2022-09-03T07:15:38.246Z,97487.95
2022-09-03T07:18:06.984Z,97489.29
2022-09-03T07:20:36.676Z,97486.66
2022-09-03T07:23:05.567Z,97488.70
2022-09-03T07:25:34.278Z,97483.21
2022-09-03T07:28:07.110Z,97486.64
2022-09-03T07:30:36.129Z,97489.03
2022-09-03T07:33:07.689Z,97488.48
2022-09-03T07:35:37.588Z,97492.38
2022-09-03T07:38:06.526Z,97492.83
2022-09-03T07:40:35.478Z,97494.59
2022-09-03T07:43:04.896Z,97500.34
2022-09-03T07:45:33.978Z,97499.13
2022-09-03T07:48:03.191Z,97503.14
2022-09-03T07:50:37.974Z,97504.69
2022-09-03T07:53:06.793Z,97506.90
2022-09-03T07:55:36.278Z,97509.05
2022-09-03T07:58:05.061Z,97512.79
2022-09-03T08:00:34.354Z,97516.60
2022-09-03T08:03:08.583Z,97521.27
2022-09-03T08:05:37.701Z,97522.61
2022-09-03T08:08:08.109Z,97527.06
2022-09-03T08:10:38.631Z,97528.33
2022-09-03T08:13:08.379Z,97526.20
2022-09-03T08:15:41.041Z,97519.12
2022-09-03T08:18:12.805Z,97523.33
2022-09-03T08:20:41.790Z,97524.82
2022-09-03T08:23:10.889Z,97524.33
2022-09-03T08:25:39.788Z,97522.83
2022-09-03T08:28:08.633Z,97521.37
2022-09-03T08:30:38.885Z,97522.44
2022-09-03T08:33:09.006Z,97524.08
2022-09-03T08:35:39.967Z,97523.30
2022-09-03T08:38:10.904Z,97527.70
2022-09-03T08:40:39.855Z,97526.67
2022-09-03T08:43:19.174Z,97527.89
2022-09-03T08:45:49.771Z,97526.33
2022-09-03T08:48:25.702Z,97527.35
2022-09-03T08:51:00.204Z,97530.45
2022-09-03T08:53:35.728Z,97526.91
2022-09-03T08:56:11.134Z,97530.08
2022-09-03T08:58:44.242Z,97528.83
2022-09-03T09:01:26.487Z,97531.19
2022-09-03T09:04:12.926Z,97530.70
2022-09-03T09:06:47.729Z,97533.67
2022-09-03T09:09:34.256Z,97535.64
2022-09-03T09:12:21.496Z,97534.30
2022-09-03T09:15:14.665Z,97534.02
2022-09-03T09:18:00.714Z,97534.73
2022-09-03T09:20:35.700Z,97540.11
2022-09-03T09:23:13.152Z,97539.64
2022-09-03T09:25:52.161Z,97539.11
2022-09-03T09:28:23.657Z,97540.04
2022-09-03T09:30:57.093Z,97537.05
2022-09-03T09:33:25.994Z,97540.23
2022-09-03T09:35:56.423Z,97541.69
2022-09-03T09:38:33.812Z,97543.02
2022-09-03T09:41:11.584Z,97545.35
2022-09-03T09:43:41.323Z,97542.72
2022-09-03T09:46:14.422Z,97543.52
2022-09-03T09:49:11.395Z,97545.41
2022-09-03T09:51:43.383Z,97545.27
2022-09-03T09:54:22.351Z,97549.20
2022-09-03T09:57:04.271Z,97551.34
2022-09-03T09:59:37.439Z,97553.05
2022-09-03T10:02:29.150Z,97552.60
2022-09-03T10:05:14.079Z,97553.71
2022-09-03T10:08:01.628Z,97555.58
2022-09-03T10:10:45.498Z,97555.18
2022-09-03T10:13:36.190Z,97555.05
2022-09-03T10:16:17.044Z,97555.45
2022-09-03T10:19:25.339Z,97554.11
2022-09-03T10:22:19.690Z,97553.50
2022-09-03T10:25:10.175Z,97555.56
2022-09-03T10:27:41.026Z,97555.27
2022-09-03T10:30:16.617Z,97557.77
2022-09-03T10:33:07.868Z,97557.86
2022-09-03T10:35:47.435Z,97556.20
2022-09-03T10:38:33.707Z,97557.15
2022-09-03T10:41:35.885Z,97556.93
2022-09-03T10:44:41.535Z,97557.52
2022-09-03T10:47:26.781Z,97556.13
2022-09-03T10:50:30.902Z,97555.30
2022-09-03T10:53:19.591Z,97554.77
2022-09-03T10:55:59.168Z,97552.36
2022-09-03T10:58:56.320Z,97547.90
2022-09-03T11:01:43.390Z,97547.45
2022-09-03T11:04:39.300Z,97545.16
2022-09-03T11:07:13.933Z,97543.34
2022-09-03T11:09:52.674Z,97545.28
2022-09-03T11:12:31.059Z,97547.77
2022-09-03T12:25:51.198Z,97554.11
2022-09-03T12:28:25.475Z,97553.83
2022-09-03T12:30:54.725Z,97556.42
2022-09-03T12:33:31.248Z,97555.58
2022-09-03T12:36:03.262Z,97559.97
2022-09-03T12:39:00.760Z,97559.79
2022-09-03T12:41:33.486Z,97561.92
2022-09-03T12:44:07.041Z,97559.82
2022-09-03T12:46:36.620Z,97556.17
2022-09-03T12:52:09.030Z,97549.70
2022-09-03T12:54:50.705Z,97546.66
2022-09-03T12:57:30.119Z,97548.33
2022-09-03T13:00:17.357Z,97547.50
2022-09-03T13:03:08.820Z,97543.48
2022-09-03T13:06:02.192Z,97542.17
2022-09-03T13:08:39.437Z,97541.58
2022-09-03T13:11:08.868Z,97545.95
2022-09-03T13:13:39.676Z,97544.99
2022-09-03T13:16:42.210Z,97548.88
2022-09-03T13:19:43.358Z,97550.73
2022-09-03T13:22:39.950Z,97551.87
2022-09-03T13:25:08.563Z,97554.38
2022-09-03T13:27:43.503Z,97558.10
2022-09-03T13:30:21.667Z,97564.34
2022-09-03T13:33:02.947Z,97563.86
2022-09-03T13:35:40.260Z,97563.08
2022-09-03T13:38:15.598Z,97560.10
2022-09-03T13:41:03.132Z,97560.40
2022-09-03T13:43:54.136Z,97561.02
2022-09-03T13:46:46.376Z,97564.68
2022-09-03T13:49:53.769Z,97565.40
2022-09-03T13:52:35.866Z,97564.91
2022-09-03T13:55:18.622Z,97561.94
2022-09-03T13:58:01.493Z,97556.70
2022-09-03T14:00:37.152Z,97556.74
2022-09-03T14:03:15.765Z,97556.30
2022-09-03T14:06:03.193Z,97556.03
2022-09-03T14:09:02.599Z,97554.16
2022-09-03T14:12:03.027Z,97550.78
2022-09-03T14:14:55.074Z,97550.52
2022-09-03T14:17:40.761Z,97550.79
2022-09-03T14:20:24.279Z,97547.97
2022-09-03T14:23:10.984Z,97548.65
2022-09-03T14:25:44.886Z,97550.20
2022-09-03T14:28:25.514Z,97550.90
2022-09-03T14:31:18.862Z,97551.77
2022-09-03T14:34:06.150Z,97551.15
2022-09-03T14:36:49.919Z,97542.59
2022-09-03T14:39:32.505Z,97544.20
2022-09-03T14:42:07.530Z,97541.33
2022-09-03T14:44:51.375Z,97539.30
2022-09-03T14:47:38.081Z,97539.03
2022-09-03T14:50:06.666Z,97542.33
2022-09-03T14:52:38.429Z,97538.31
2022-09-03T14:55:27.788Z,97537.13
2022-09-03T14:57:59.129Z,97540.41
2022-09-03T15:00:43.496Z,97550.69
2022-09-03T15:03:36.653Z,97559.94
2022-09-03T15:06:08.204Z,97555.41
2022-09-03T15:09:18.539Z,97554.66
2022-09-03T15:11:57.976Z,97551.98
2022-09-03T15:14:30.273Z,97548.23
2022-09-03T15:17:27.147Z,97543.75
2022-09-03T15:20:18.208Z,97538.78
2022-09-03T15:23:13.429Z,97536.77
2022-09-03T15:25:54.618Z,97541.46
2022-09-03T15:28:59.346Z,97541.71
2022-09-03T15:31:35.046Z,97544.96
2022-09-03T15:34:25.695Z,97545.65
2022-09-03T15:36:58.707Z,97540.05
2022-09-03T15:39:37.444Z,97536.73
2022-09-03T15:42:06.603Z,97536.63
2022-09-03T15:45:14.915Z,97539.63
2022-09-03T15:47:51.838Z,97530.30
2022-09-03T15:50:34.396Z,97523.86
2022-09-03T15:53:18.144Z,97528.32
2022-09-03T15:55:48.488Z,97527.27
2022-09-03T15:58:41.524Z,97531.98
2022-09-03T16:01:41.886Z,97536.12
2022-09-03T16:04:16.266Z,97542.88
2022-09-03T16:06:55.788Z,97546.48
2022-09-03T16:09:33.401Z,97550.34
2022-09-03T16:12:19.193Z,97549.39
2022-09-03T16:15:18.292Z,97553.58
2022-09-03T16:17:57.799Z,97552.34
2022-09-03T16:20:29.549Z,97556.41
2022-09-03T16:23:06.053Z,97556.68
2022-09-03T16:25:59.509Z,97557.27
2022-09-03T16:28:52.346Z,97557.33
2022-09-03T16:31:40.221Z,97561.09
2022-09-03T16:34:22.207Z,97564.68
2022-09-03T16:37:02.771Z,97564.88
2022-09-03T16:40:13.702Z,97564.42
2022-09-03T16:42:48.417Z,97571.15
2022-09-03T16:45:20.496Z,97569.99
2022-09-03T16:48:04.890Z,97572.52
2022-09-03T16:51:06.520Z,97572.35
2022-09-03T16:54:14.551Z,97569.38
2022-09-03T16:57:35.837Z,97576.29
2022-09-03T17:00:13.009Z,97579.33
2022-09-03T17:02:42.551Z,97578.58
2022-09-03T17:05:26.546Z,97582.20
2022-09-03T17:08:18.749Z,97581.75
2022-09-03T17:10:55.816Z,97584.30
2022-09-03T17:13:39.466Z,97582.45
2022-09-03T17:16:38.817Z,97583.88
2022-09-03T17:19:19.384Z,97583.86
2022-09-03T17:21:50.694Z,97593.22
2022-09-03T17:24:36.983Z,97592.88
2022-09-03T17:27:23.996Z,97592.60
2022-09-03T17:30:14.288Z,97598.24
2022-09-03T17:33:34.793Z,97602.77
2022-09-03T17:36:09.790Z,97604.49
2022-09-03T17:39:15.780Z,97604.80
2022-09-03T17:41:54.770Z,97612.39
2022-09-03T17:44:45.101Z,97614.96
2022-09-03T17:47:38.259Z,97617.41
2022-09-03T17:50:21.282Z,97621.08
2022-09-03T17:53:00.149Z,97623.02
2022-09-03T17:55:36.676Z,97620.13
2022-09-03T17:58:15.100Z,97622.40
2022-09-03T18:00:52.787Z,97628.23
2022-09-03T18:03:28.126Z,97636.33
2022-09-03T18:06:02.241Z,97636.65
2022-09-03T18:08:44.781Z,97639.95
2022-09-03T18:11:23.468Z,97638.92
2022-09-03T18:14:01.372Z,97643.64
2022-09-03T18:16:33.534Z,97643.16
2022-09-03T18:19:03.048Z,97644.83
2022-09-03T18:21:56.817Z,97647.88
2022-09-03T18:25:00.730Z,97645.47
2022-09-03T18:28:09.557Z,97645.77
2022-09-03T18:30:57.269Z,97644.99
2022-09-03T18:33:45.961Z,97649.03
2022-09-03T18:36:33.159Z,97648.61
2022-09-03T18:39:33.479Z,97650.16
2022-09-03T18:42:51.734Z,97653.35
2022-09-03T18:49:22.708Z,97662.69
2022-09-03T18:52:29.482Z,97661.00
2022-09-03T18:55:31.034Z,97663.42
2022-09-03T18:58:36.379Z,97661.30
2022-09-03T19:02:04.067Z,97664.30
2022-09-03T19:05:23.522Z,97662.04
2022-09-03T19:08:29.482Z,97662.64
2022-09-03T19:11:36.780Z,97669.92
2022-09-03T19:14:33.618Z,97668.02
2022-09-03T19:17:40.808Z,97666.71
2022-09-03T19:20:50.102Z,97670.18
2022-09-03T19:23:37.159Z,97668.15
2022-09-03T19:27:23.554Z,97672.34
2022-09-03T19:30:27.799Z,97676.23
2022-09-03T19:33:33.347Z,97681.72
2022-09-03T19:36:32.229Z,97680.84
2022-09-03T19:39:47.162Z,97682.89
2022-09-03T19:43:12.002Z,97684.98
2022-09-03T19:46:11.641Z,97685.73
2022-09-03T19:49:20.341Z,97687.37
2022-09-03T19:52:13.392Z,97691.84
2022-09-03T19:55:00.713Z,97696.08
2022-09-03T19:57:49.989Z,97696.16
2022-09-03T20:00:37.818Z,97699.31
2022-09-03T20:03:26.163Z,97701.33
2022-09-03T20:06:13.874Z,97699.94
2022-09-03T20:09:01.829Z,97698.52
2022-09-03T20:11:31.496Z,97705.05
2022-09-03T20:14:15.867Z,97707.83
2022-09-03T20:17:02.388Z,97712.63
2022-09-03T20:19:52.668Z,97709.21
2022-09-03T20:22:28.817Z,97709.30
2022-09-03T20:25:07.438Z,97709.20
2022-09-03T20:27:50.728Z,97705.63
2022-09-03T20:30:21.765Z,97705.93
2022-09-03T20:33:25.794Z,97708.86
2022-09-03T20:36:05.393Z,97706.44
2022-09-03T20:38:52.817Z,97708.58
2022-09-03T20:42:03.292Z,97710.48
2022-09-03T20:44:52.986Z,97713.27
2022-09-03T20:47:41.748Z,97714.30
2022-09-03T20:50:44.597Z,97717.54
2022-09-03T20:53:33.807Z,97720.86
2022-09-03T20:56:21.713Z,97723.33
2022-09-03T20:59:14.121Z,97722.88
2022-09-03T21:01:58.711Z,97722.58
2022-09-03T21:04:49.303Z,97721.64
2022-09-03T21:07:36.014Z,97721.94
2022-09-03T21:10:23.854Z,97726.48
2022-09-03T21:12:52.539Z,97724.19
2022-09-03T21:15:46.248Z,97719.80
2022-09-03T21:18:31.607Z,97724.81
2022-09-03T21:21:36.016Z,97726.67
2022-09-03T21:24:16.673Z,97723.42
2022-09-03T21:26:52.228Z,97720.59
2022-09-03T21:29:29.507Z,97723.86
2022-09-03T21:32:04.237Z,97725.84
2022-09-03T21:34:49.207Z,97725.61
2022-09-03T21:37:19.435Z,97726.57
2022-09-03T21:39:54.699Z,97726.09
2022-09-03T21:42:46.403Z,97727.42
2022-09-03T21:45:34.524Z,97730.16
2022-09-03T21:48:16.175Z,97732.14
2022-09-03T21:50:54.042Z,97730.08
2022-09-03T21:53:42.677Z,97730.39
2022-09-03T21:56:38.293Z,97733.30
2022-09-03T21:59:25.748Z,97735.96
2022-09-03T22:02:03.493Z,97732.25
2022-09-03T22:04:33.230Z,97726.86
2022-09-03T22:07:20.036Z,97730.77
2022-09-03T22:10:20.236Z,97736.13
2022-09-03T22:13:15.291Z,97736.75
2022-09-03T22:15:52.181Z,97739.66
2022-09-03T22:18:30.009Z,97744.91
2022-09-03T22:21:23.985Z,97739.23
2022-09-03T22:24:16.318Z,97740.67
2022-09-03T22:26:56.102Z,97744.92
2022-09-03T22:29:37.190Z,97740.13
2022-09-03T22:32:46.787Z,97735.62
2022-09-03T22:35:35.793Z,97738.71
2022-09-03T22:38:10.202Z,97742.27
2022-09-03T22:41:16.514Z,97744.98
2022-09-03T22:44:02.983Z,97747.21
2022-09-03T22:46:53.398Z,97740.89
2022-09-03T22:49:47.168Z,97743.42
2022-09-03T22:52:30.903Z,97741.23
2022-09-03T22:55:12.034Z,97740.81
2022-09-03T22:58:13.850Z,97740.29
2022-09-03T23:00:48.723Z,97739.27
2022-09-03T23:03:26.622Z,97739.57
2022-09-03T23:06:04.174Z,97739.09
2022-09-03T23:08:40.634Z,97740.62
2022-09-03T23:11:26.383Z,97738.29
2022-09-03T23:14:08.672Z,97740.98
2022-09-03T23:17:00.979Z,97739.50
2022-09-03T23:19:47.689Z,97741.25
2022-09-03T23:22:45.440Z,97744.23
2022-09-03T23:25:21.391Z,97748.40
2022-09-03T23:27:55.901Z,97745.80
2022-09-03T23:30:24.790Z,97748.91
2022-09-03T23:32:59.032Z,97746.67
2022-09-03T23:35:49.748Z,97747.37
2022-09-03T23:38:35.259Z,97745.63
2022-09-03T23:41:10.339Z,97744.67
2022-09-03T23:44:04.478Z,97746.52
2022-09-03T23:47:18.548Z,97752.26
2022-09-03T23:49:59.564Z,97748.02
2022-09-03T23:52:46.152Z,97747.79
2022-09-03T23:55:33.574Z,97751.40
2022-09-03T23:58:11.264Z,97754.90
